Time;durP1;ratioP1;P1;durP2;ratioP2;P2;SDS_P1;SDS_P2;PMS_P1;PMS_P2;Temp;Humidity;BMP_temperature;BMP_pressure;BME280_temperature;BME280_humidity;BME280_pressure;Samples;Min_cycle;Max_cycle;Signal;HPM_P1;HPM_P2
2021/12/07 00:02:14;;;;;;;3.50;3.20;;;2.60;99.90;;;;;;4897109;29;20187;-74
2021/12/07 00:04:40;;;;;;;3.50;3.17;;;2.60;99.90;;;;;;4896948;29;20555;-74
2021/12/07 00:07:07;;;;;;;3.10;2.80;;;2.70;99.90;;;;;;4889910;29;20640;-74
2021/12/07 00:09:32;;;;;;;2.73;2.47;;;2.70;99.90;;;;;;4879733;29;20429;-74
2021/12/07 00:12:03;;;;;;;2.97;2.77;;;2.70;99.90;;;;;;4880424;29;20422;-74
2021/12/07 00:14:35;;;;;;;4.07;2.70;;;2.70;99.90;;;;;;4879503;29;20213;-74
2021/12/07 00:17:03;;;;;;;3.53;3.20;;;2.70;99.90;;;;;;4878786;29;20801;-74
2021/12/07 00:19:29;;;;;;;5.90;3.73;;;2.70;99.90;;;;;;4879157;29;20413;-75
2021/12/07 00:21:54;;;;;;;3.63;3.30;;;2.70;99.90;;;;;;4879640;29;20403;-74
2021/12/07 00:24:20;;;;;;;4.93;2.90;;;2.70;99.90;;;;;;4889928;29;20235;-75
2021/12/07 00:26:46;;;;;;;5.20;3.50;;;2.70;99.90;;;;;;4896814;29;20239;-74
2021/12/07 00:29:13;;;;;;;4.07;3.00;;;2.70;99.90;;;;;;4898127;29;20621;-72
2021/12/07 00:31:51;;;;;;;3.13;2.80;;;2.70;99.90;;;;;;4898290;29;20222;-74
2021/12/07 00:34:38;;;;;;;3.70;3.40;;;2.70;99.90;;;;;;4897709;29;20499;-75
2021/12/07 00:37:03;;;;;;;3.33;2.70;;;2.70;99.90;;;;;;4898018;29;20925;-75
2021/12/07 00:39:29;;;;;;;3.27;2.63;;;2.70;99.90;;;;;;4896200;29;20431;-74
2021/12/07 00:41:56;;;;;;;3.00;2.50;;;2.80;99.90;;;;;;4896770;29;20286;-74
2021/12/07 00:44:24;;;;;;;3.10;2.90;;;2.70;99.90;;;;;;4897599;29;20217;-74
2021/12/07 00:46:51;;;;;;;5.00;3.40;;;2.70;99.90;;;;;;4897799;29;20416;-74
2021/12/07 00:49:17;;;;;;;3.77;2.90;;;2.80;99.90;;;;;;4897594;29;20502;-75
2021/12/07 00:51:43;;;;;;;6.10;3.60;;;2.80;99.90;;;;;;4897320;29;20533;-74
2021/12/07 00:54:10;;;;;;;4.07;3.33;;;2.70;99.90;;;;;;4896990;29;20460;-76
2021/12/07 00:56:36;;;;;;;4.27;3.37;;;2.70;99.90;;;;;;4895161;29;20450;-74
2021/12/07 00:59:03;;;;;;;3.50;3.07;;;2.50;99.90;;;;;;4895963;29;20405;-75
2021/12/07 05:37:59;;;;;;;6.07;1.33;;;2.50;99.90;;;;;;4898024;29;20424;-76
2021/12/07 05:40:33;;;;;;;5.07;1.50;;;2.40;99.90;;;;;;4897634;29;20416;-76
2021/12/07 05:43:00;;;;;;;2.50;1.20;;;2.50;99.90;;;;;;4878395;29;20447;-76
2021/12/07 05:45:32;;;;;;;3.60;1.40;;;2.50;99.90;;;;;;4875609;29;20831;-76
2021/12/07 05:47:58;;;;;;;4.03;1.80;;;2.50;99.90;;;;;;4859408;29;20500;-76
2021/12/07 05:50:25;;;;;;;4.10;1.37;;;2.60;99.90;;;;;;4859721;29;20463;-76
2021/12/07 05:52:51;;;;;;;5.23;1.57;;;2.60;99.90;;;;;;4859449;29;20437;-76
2021/12/07 05:55:17;;;;;;;2.70;1.17;;;2.60;99.90;;;;;;4859463;29;20504;-76
2021/12/07 05:57:43;;;;;;;6.70;1.70;;;2.70;99.90;;;;;;4859547;29;20433;-76
2021/12/07 06:00:13;;;;;;;2.50;1.23;;;2.70;99.90;;;;;;4859471;29;20188;-76
2021/12/07 06:02:39;;;;;;;1.73;1.27;;;2.80;99.90;;;;;;4859147;29;20828;-76
2021/12/07 06:05:05;;;;;;;2.80;1.20;;;2.80;99.90;;;;;;4858047;29;20505;-76
2021/12/07 06:07:31;;;;;;;4.77;1.07;;;2.90;99.90;;;;;;4859290;29;20768;-76
2021/12/07 06:09:56;;;;;;;7.77;2.70;;;2.90;99.90;;;;;;4859333;29;20433;-76
2021/12/07 06:12:22;;;;;;;4.10;2.93;;;2.90;99.90;;;;;;4859162;29;20570;-76
2021/12/07 06:14:47;;;;;;;7.53;3.00;;;3.00;99.90;;;;;;4859973;29;20246;-76
2021/12/07 06:17:13;;;;;;;1.90;1.73;;;3.00;99.90;;;;;;4862982;29;20258;-76
2021/12/07 06:19:39;;;;;;;7.10;2.60;;;3.00;99.90;;;;;;4863252;29;20248;-76
2021/12/07 06:22:06;;;;;;;3.70;3.13;;;3.10;99.90;;;;;;4862949;29;20415;-76
2021/12/07 06:24:32;;;;;;;5.43;2.10;;;3.10;99.90;;;;;;4862845;29;20546;-76
2021/12/07 06:26:59;;;;;;;5.03;1.70;;;3.10;99.90;;;;;;4862838;29;20784;-76
2021/12/07 06:29:24;;;;;;;3.73;1.57;;;3.20;99.90;;;;;;4863045;29;20433;-77
2021/12/07 06:31:50;;;;;;;4.60;1.77;;;3.20;99.90;;;;;;4862524;29;20464;-76
2021/12/07 06:34:16;;;;;;;5.23;1.83;;;3.30;99.90;;;;;;4862526;29;20229;-77
2021/12/07 06:36:41;;;;;;;8.33;1.63;;;3.30;99.90;;;;;;4863022;29;20679;-76
2021/12/07 06:39:08;;;;;;;2.67;2.00;;;3.30;99.90;;;;;;4862398;29;20188;-76
2021/12/07 06:41:34;;;;;;;1.57;1.27;;;3.30;99.90;;;;;;4862842;29;20197;-76
2021/12/07 06:44:00;;;;;;;4.93;2.07;;;3.40;99.90;;;;;;4862373;29;20486;-77
2021/12/07 06:46:26;;;;;;;2.20;1.23;;;3.40;99.90;;;;;;4862824;29;20663;-76
2021/12/07 06:48:51;;;;;;;5.93;1.60;;;3.40;99.90;;;;;;4862440;29;20604;-76
2021/12/07 06:51:17;;;;;;;2.40;1.43;;;3.40;99.90;;;;;;4862528;29;20216;-76
2021/12/07 06:53:43;;;;;;;4.53;1.67;;;3.40;99.90;;;;;;4862426;29;20188;-76
2021/12/07 06:56:10;;;;;;;4.73;1.97;;;3.40;99.90;;;;;;4862680;29;20257;-76
2021/12/07 06:58:36;;;;;;;3.70;1.80;;;3.40;99.90;;;;;;4862525;29;20239;-74
2021/12/07 07:01:06;;;;;;;1.80;1.20;;;3.50;99.90;;;;;;4862575;29;20460;-74
2021/12/07 07:03:34;;;;;;;5.60;1.73;;;3.50;99.90;;;;;;4862506;29;20418;-73
2021/12/07 07:06:01;;;;;;;8.47;1.90;;;3.60;99.90;;;;;;4862607;29;20435;-73
2021/12/07 07:08:27;;;;;;;2.37;1.70;;;3.60;99.90;;;;;;4862415;29;20431;-72
2021/12/07 07:10:53;;;;;;;5.00;2.43;;;3.60;99.90;;;;;;4862251;29;20465;-73
2021/12/07 07:13:18;;;;;;;3.43;1.70;;;3.60;99.90;;;;;;4862417;29;20276;-72
2021/12/07 07:15:44;;;;;;;5.23;1.97;;;3.70;99.90;;;;;;4862257;29;20629;-73
2021/12/07 07:18:09;;;;;;;6.50;2.60;;;3.60;99.90;;;;;;4862132;29;20204;-73
2021/12/07 07:20:36;;;;;;;11.87;2.20;;;3.60;99.90;;;;;;4862131;29;20546;-73
2021/12/07 07:23:01;;;;;;;8.13;1.97;;;3.60;99.90;;;;;;4861899;29;20667;-73
2021/12/07 07:25:27;;;;;;;8.33;2.50;;;3.60;99.90;;;;;;4862193;29;20465;-72
2021/12/07 07:27:52;;;;;;;3.53;1.97;;;3.70;99.90;;;;;;4862117;29;20742;-72
2021/12/07 07:30:19;;;;;;;8.77;2.23;;;3.60;99.90;;;;;;4862177;29;20194;-73
2021/12/07 07:32:46;;;;;;;7.77;1.90;;;3.60;99.90;;;;;;4861869;29;20233;-71
2021/12/07 07:35:13;;;;;;;9.57;2.80;;;3.60;99.90;;;;;;4861733;29;20468;-73
2021/12/07 07:37:39;;;;;;;5.17;2.10;;;3.60;99.90;;;;;;4862117;29;20393;-73
2021/12/07 07:40:08;;;;;;;14.93;2.03;;;3.60;99.90;;;;;;4861445;29;20414;-72
2021/12/07 07:42:34;;;;;;;3.70;1.50;;;3.50;99.90;;;;;;4861537;29;20208;-72
2021/12/07 07:44:59;;;;;;;3.47;1.70;;;3.60;99.90;;;;;;4861338;29;20797;-72
2021/12/07 07:47:25;;;;;;;5.27;2.37;;;3.50;99.90;;;;;;4861554;29;20279;-72
2021/12/07 07:49:51;;;;;;;2.57;2.10;;;3.50;99.90;;;;;;4861620;29;20204;-71
2021/12/07 07:52:16;;;;;;;7.80;2.10;;;3.50;99.90;;;;;;4861033;29;20239;-72
2021/12/07 07:54:42;;;;;;;5.57;1.67;;;3.60;99.90;;;;;;4861296;29;20293;-72
2021/12/07 07:57:08;;;;;;;4.83;2.17;;;3.60;99.90;;;;;;4861247;29;20184;-72
2021/12/07 07:59:36;;;;;;;3.50;1.90;;;3.60;99.90;;;;;;4861371;29;20228;-72
2021/12/07 08:02:02;;;;;;;6.20;1.67;;;3.70;99.90;;;;;;4861085;29;20200;-72
2021/12/07 08:04:27;;;;;;;4.77;1.40;;;3.70;99.90;;;;;;4861210;29;20433;-72
2021/12/07 08:06:53;;;;;;;3.97;1.30;;;3.80;99.90;;;;;;4861155;29;20483;-72
2021/12/07 08:09:18;;;;;;;7.07;1.40;;;3.80;99.90;;;;;;4861044;29;20193;-72
2021/12/07 08:11:44;;;;;;;9.87;1.43;;;3.90;99.90;;;;;;4861185;29;20205;-72
2021/12/07 08:14:10;;;;;;;4.83;1.80;;;3.90;99.90;;;;;;4860611;29;20202;-72
2021/12/07 08:16:35;;;;;;;3.77;1.40;;;4.00;99.90;;;;;;4860228;29;20260;-71
2021/12/07 08:19:01;;;;;;;3.67;1.80;;;4.00;99.90;;;;;;4858504;29;20646;-71
2021/12/07 08:21:27;;;;;;;6.50;1.30;;;4.10;99.90;;;;;;4877053;29;20697;-71
2021/12/07 08:23:52;;;;;;;2.40;1.20;;;4.10;99.90;;;;;;4879036;29;20458;-71
2021/12/07 08:26:21;;;;;;;8.43;1.97;;;4.20;99.90;;;;;;4879433;29;20563;-70
2021/12/07 08:28:46;;;;;;;1.40;1.27;;;4.20;99.90;;;;;;4878358;29;20180;-72
2021/12/07 08:31:12;;;;;;;2.83;1.20;;;4.20;99.90;;;;;;4878921;29;20873;-72
2021/12/07 08:33:38;;;;;;;4.30;1.10;;;4.30;99.90;;;;;;4875604;29;20195;-71
2021/12/07 08:36:04;;;;;;;4.73;0.83;;;4.30;99.90;;;;;;4879069;29;20208;-72
2021/12/07 08:38:30;;;;;;;4.10;1.40;;;4.30;99.90;;;;;;4878541;29;20180;-71
2021/12/07 08:40:57;;;;;;;1.70;1.10;;;4.30;99.90;;;;;;4879002;29;20447;-73
2021/12/07 08:43:26;;;;;;;5.50;1.30;;;4.30;99.90;;;;;;4878821;29;20439;-73
2021/12/07 08:45:53;;;;;;;6.40;1.10;;;4.40;99.90;;;;;;4879403;29;20478;-72
2021/12/07 08:48:19;;;;;;;5.83;1.17;;;4.40;99.90;;;;;;4879056;29;20505;-73
2021/12/07 08:50:47;;;;;;;3.07;1.17;;;4.50;99.90;;;;;;4879167;29;20933;-73
2021/12/07 08:53:15;;;;;;;10.70;1.60;;;4.50;99.90;;;;;;4878528;29;20434;-72
2021/12/07 09:01:15;;;;;;;4.10;1.40;;;4.70;99.90;;;;;;4879054;29;20534;-72
2021/12/07 09:03:40;;;;;;;9.80;1.60;;;4.70;99.90;;;;;;4879468;29;20417;-71
2021/12/07 09:06:06;;;;;;;5.10;0.97;;;4.80;99.90;;;;;;4878957;29;20524;-72
2021/12/07 09:08:32;;;;;;;8.17;1.20;;;4.80;99.90;;;;;;4878775;29;20204;-72
2021/12/07 09:10:57;;;;;;;1.77;1.10;;;4.80;99.90;;;;;;4878637;29;20205;-72
2021/12/07 09:13:26;;;;;;;2.13;1.13;;;4.80;99.90;;;;;;4878198;29;20181;-72
2021/12/07 09:15:52;;;;;;;5.77;1.10;;;4.80;99.90;;;;;;4878560;29;20233;-72
2021/12/07 09:18:18;;;;;;;1.80;1.27;;;4.80;99.90;;;;;;4878363;29;20481;-72
2021/12/07 09:20:44;;;;;;;6.43;1.10;;;4.80;99.90;;;;;;4878496;29;20422;-72
2021/12/07 09:23:09;;;;;;;5.43;1.20;;;4.80;99.90;;;;;;4878068;29;20183;-71
2021/12/07 09:25:36;;;;;;;4.57;1.50;;;4.80;99.90;;;;;;4878712;29;20197;-71
2021/12/07 09:28:02;;;;;;;1.17;0.90;;;4.90;99.90;;;;;;4878554;29;20444;-72
2021/12/07 09:30:28;;;;;;;6.93;1.00;;;5.00;99.90;;;;;;4878426;29;20423;-72
2021/12/07 09:32:54;;;;;;;5.80;0.87;;;5.40;99.90;;;;;;4878058;29;20444;-72
2021/12/07 09:35:21;;;;;;;2.07;1.30;;;5.90;99.90;;;;;;4878491;29;20488;-72
2021/12/07 09:37:48;;;;;;;3.23;1.30;;;6.60;99.90;;;;;;4878518;29;20210;-72
2021/12/07 09:40:16;;;;;;;1.70;1.00;;;7.10;99.90;;;;;;4878368;29;20394;-73
2021/12/07 09:42:42;;;;;;;3.17;1.07;;;7.50;99.90;;;;;;4878009;29;20868;-73
2021/12/07 09:45:11;;;;;;;7.03;1.63;;;8.00;99.90;;;;;;4861673;29;20525;-73
2021/12/07 09:47:37;;;;;;;2.60;1.03;;;8.30;99.90;;;;;;4878354;29;20424;-72
2021/12/07 09:50:06;;;;;;;2.20;0.90;;;8.30;99.90;;;;;;4877572;29;20826;-73
2021/12/07 09:52:32;;;;;;;3.50;1.50;;;8.30;99.90;;;;;;4878167;29;20279;-73
2021/12/07 09:54:57;;;;;;;10.70;1.30;;;8.50;99.90;;;;;;4878209;29;20485;-72
2021/12/07 09:57:23;;;;;;;5.60;1.20;;;8.60;99.90;;;;;;4878289;29;20192;-73
2021/12/07 09:59:49;;;;;;;6.87;1.23;;;8.40;99.90;;;;;;4878321;29;20200;-72
2021/12/07 10:02:15;;;;;;;10.70;1.73;;;8.40;99.90;;;;;;4877892;29;20514;-72
2021/12/07 10:04:40;;;;;;;5.10;1.07;;;8.60;99.90;;;;;;4877918;29;20932;-72
2021/12/07 10:07:08;;;;;;;3.27;1.00;;;8.50;99.90;;;;;;4878028;29;20560;-72
2021/12/07 10:09:35;;;;;;;3.23;1.27;;;8.00;99.90;;;;;;4876746;29;20187;-72
2021/12/07 10:12:01;;;;;;;10.10;1.40;;;7.50;99.90;;;;;;4877905;29;20503;-72
2021/12/07 10:14:36;;;;;;;4.73;1.57;;;7.00;99.90;;;;;;4877500;29;20428;-72
2021/12/07 10:17:02;;;;;;;8.57;1.00;;;6.30;99.90;;;;;;4877956;29;20266;-72
2021/12/07 10:19:30;;;;;;;4.63;0.80;;;6.00;99.90;;;;;;4878004;29;20498;-72
2021/12/07 10:22:01;;;;;;;2.20;1.10;;;5.80;99.90;;;;;;4877721;29;20452;-72
2021/12/07 10:24:37;;;;;;;7.73;1.10;;;5.60;99.90;;;;;;4877411;29;20412;-72
2021/12/07 10:27:02;;;;;;;4.53;1.43;;;5.40;99.90;;;;;;4876341;29;20433;-72
2021/12/07 10:29:28;;;;;;;17.97;1.37;;;5.50;99.90;;;;;;4877590;29;20427;-71
2021/12/07 10:32:00;;;;;;;4.00;1.13;;;5.80;99.90;;;;;;4877445;29;20304;-71
2021/12/07 10:34:34;;;;;;;5.90;1.60;;;6.10;99.90;;;;;;4877469;29;20183;-72
2021/12/07 10:37:10;;;;;;;5.20;1.10;;;6.40;99.90;;;;;;4876668;29;20930;-71
2021/12/07 10:39:40;;;;;;;4.10;1.20;;;6.80;99.90;;;;;;4877689;29;20422;-72
2021/12/07 10:42:09;;;;;;;7.87;1.00;;;7.20;99.90;;;;;;4877281;29;20466;-72
2021/12/07 10:44:38;;;;;;;9.30;2.83;;;7.60;99.90;;;;;;4877384;29;20583;-72
2021/12/07 10:47:09;;;;;;;3.17;0.97;;;7.80;99.90;;;;;;4877655;29;20421;-71
2021/12/07 10:49:46;;;;;;;2.40;1.03;;;8.10;99.90;;;;;;4877604;29;20433;-72
2021/12/07 10:52:11;;;;;;;2.20;0.80;;;8.30;99.90;;;;;;4877344;29;20440;-72
2021/12/07 10:54:45;;;;;;;3.50;1.40;;;8.30;99.90;;;;;;4876022;29;21057;-72
2021/12/07 10:57:14;;;;;;;4.20;1.13;;;8.20;99.90;;;;;;4877689;29;20288;-72
2021/12/07 10:59:54;;;;;;;8.40;1.23;;;8.40;99.90;;;;;;4877586;29;20415;-72
2021/12/07 11:02:21;;;;;;;5.40;1.00;;;8.50;99.90;;;;;;4880912;29;20442;-72
2021/12/07 11:04:49;;;;;;;3.30;0.87;;;8.60;99.90;;;;;;4880875;29;20435;-72
2021/12/07 11:07:19;;;;;;;5.50;1.50;;;8.70;99.90;;;;;;4881107;29;20567;-72
2021/12/07 11:09:58;;;;;;;9.00;1.73;;;8.70;99.90;;;;;;4881092;29;20849;-72
2021/12/07 11:12:26;;;;;;;5.77;0.90;;;8.80;99.90;;;;;;4880839;29;20537;-72
2021/12/07 11:14:57;;;;;;;3.50;0.90;;;8.50;99.90;;;;;;4879630;29;20867;-72
2021/12/07 11:17:29;;;;;;;3.10;0.80;;;8.50;99.90;;;;;;4880689;29;20491;-71
2021/12/07 11:19:55;;;;;;;5.97;0.90;;;8.60;99.90;;;;;;4880714;29;20429;-72
2021/12/07 11:22:26;;;;;;;2.40;0.77;;;8.50;99.90;;;;;;4880385;29;20500;-71
2021/12/07 11:24:53;;;;;;;1.43;0.60;;;8.60;99.90;;;;;;4880370;29;20438;-72
2021/12/07 11:30:11;;;;;;;2.73;0.80;;;8.90;99.90;;;;;;4880572;29;20436;-71
2021/12/07 11:32:43;;;;;;;1.37;1.27;;;8.90;99.90;;;;;;4880232;29;20466;-73
2021/12/07 11:35:17;;;;;;;5.07;0.80;;;8.90;99.90;;;;;;4881086;29;20489;-72
2021/12/07 11:37:44;;;;;;;7.80;1.93;;;8.80;99.90;;;;;;4881102;29;20925;-72
2021/12/07 11:40:10;;;;;;;3.90;1.50;;;8.80;99.90;;;;;;4880260;29;20998;-72
2021/12/07 11:42:42;;;;;;;6.10;1.50;;;8.80;99.90;;;;;;4880073;29;20537;-72
2021/12/07 11:45:28;;;;;;;4.00;1.00;;;8.70;99.90;;;;;;4880126;29;20886;-72
2021/12/07 11:48:03;;;;;;;2.70;1.27;;;8.50;99.90;;;;;;4879895;29;20501;-73
2021/12/07 11:50:33;;;;;;;2.53;1.00;;;8.00;99.90;;;;;;4880024;29;20701;-72
2021/12/07 11:53:14;;;;;;;2.50;1.00;;;7.70;99.90;;;;;;4879790;29;20449;-71
2021/12/07 11:55:44;;;;;;;2.83;1.00;;;7.70;99.90;;;;;;4880137;29;20999;-72
2021/12/07 11:58:11;;;;;;;5.03;0.80;;;7.60;99.90;;;;;;4879894;29;20417;-72
2021/12/07 12:00:52;;;;;;;2.93;1.50;;;7.50;99.90;;;;;;4879935;29;20422;-72
2021/12/07 12:03:22;;;;;;;4.67;1.00;;;7.60;99.90;;;;;;4878113;29;20441;-72
2021/12/07 12:05:48;;;;;;;5.03;0.80;;;7.70;99.90;;;;;;4880041;29;20428;-72
2021/12/07 12:08:16;;;;;;;7.13;1.60;;;7.70;99.90;;;;;;4879533;29;20433;-72
2021/12/07 12:10:47;;;;;;;4.57;1.20;;;7.90;99.90;;;;;;4879725;29;20427;-72
2021/12/07 12:13:30;;;;;;;2.93;1.03;;;8.00;99.90;;;;;;4878455;29;20423;-72
2021/12/07 12:16:16;;;;;;;2.80;1.00;;;7.80;99.90;;;;;;4879672;29;20468;-72
2021/12/07 12:19:11;;;;;;;4.33;1.00;;;7.80;99.90;;;;;;4879804;29;20418;-72
2021/12/07 12:22:07;;;;;;;2.27;0.93;;;7.60;99.90;;;;;;4879668;29;20439;-73
2021/12/07 12:24:44;;;;;;;6.03;1.07;;;7.60;99.90;;;;;;4879034;29;20938;-72
2021/12/07 12:27:25;;;;;;;5.83;2.60;;;7.60;99.90;;;;;;4879542;29;20821;-71
2021/12/07 12:29:55;;;;;;;5.80;1.13;;;7.50;99.90;;;;;;4879671;29;20486;-73
2021/12/07 12:32:27;;;;;;;1.53;1.20;;;7.50;99.90;;;;;;4879477;29;20465;-72
2021/12/07 12:34:56;;;;;;;4.13;3.73;;;7.40;99.90;;;;;;4878911;29;20491;-72
2021/12/07 12:37:32;;;;;;;4.40;1.87;;;7.20;99.90;;;;;;4878304;29;20419;-72
2021/12/07 12:40:19;;;;;;;5.10;2.23;;;7.00;99.90;;;;;;4880119;29;20913;-71
2021/12/07 12:42:48;;;;;;;1.27;1.17;;;6.90;99.90;;;;;;4879069;29;20445;-72
2021/12/07 12:45:30;;;;;;;9.03;1.60;;;7.00;99.90;;;;;;4878020;29;20517;-71
2021/12/07 12:48:01;;;;;;;2.90;0.90;;;7.10;99.90;;;;;;4879360;29;20485;-72
2021/12/07 12:50:51;;;;;;;2.07;1.20;;;7.20;99.90;;;;;;4879220;29;20417;-72
2021/12/07 12:53:21;;;;;;;1.47;0.90;;;7.20;99.90;;;;;;4878965;29;20480;-72
2021/12/07 12:55:55;;;;;;;4.20;1.13;;;7.40;99.90;;;;;;4879349;29;20915;-72
2021/12/07 12:58:34;;;;;;;0.97;0.80;;;7.50;99.90;;;;;;4878992;29;20413;-72
2021/12/07 13:01:00;;;;;;;6.87;0.80;;;7.50;99.90;;;;;;4879000;29;20522;-72
2021/12/07 13:03:37;;;;;;;3.47;0.77;;;7.40;99.90;;;;;;4878779;29;20525;-73
2021/12/07 13:06:02;;;;;;;4.20;1.00;;;7.40;99.90;;;;;;4879124;29;20224;-72
2021/12/07 13:08:28;;;;;;;8.63;1.80;;;7.20;99.90;;;;;;4878996;29;20461;-72
2021/12/07 13:11:00;;;;;;;4.40;2.27;;;7.10;99.90;;;;;;4877712;29;20213;-73
2021/12/07 13:13:36;;;;;;;3.67;2.20;;;7.00;99.90;;;;;;4878448;29;20227;-72
2021/12/07 13:16:16;;;;;;;6.73;3.20;;;6.90;99.90;;;;;;4878646;29;20484;-72
2021/12/07 13:18:43;;;;;;;6.40;2.40;;;6.80;99.90;;;;;;4878736;29;20428;-72
2021/12/07 13:21:29;;;;;;;5.53;3.20;;;6.80;99.90;;;;;;4878497;29;20448;-73
2021/12/07 13:23:57;;;;;;;4.03;1.20;;;6.80;99.90;;;;;;4878236;29;20437;-72
2021/12/07 13:26:24;;;;;;;4.50;4.10;;;6.70;99.90;;;;;;4878536;29;20420;-72
2021/12/07 13:29:03;;;;;;;1.03;0.70;;;6.70;99.90;;;;;;4878763;29;20421;-73
2021/12/07 13:31:37;;;;;;;3.70;0.80;;;6.80;99.90;;;;;;4878541;29;20453;-72
2021/12/07 13:34:03;;;;;;;15.13;5.00;;;6.80;99.90;;;;;;4877850;29;20445;-72
2021/12/07 13:36:35;;;;;;;2.30;0.97;;;6.90;99.90;;;;;;4878446;29;20591;-72
2021/12/07 13:39:12;;;;;;;4.30;1.53;;;7.00;99.90;;;;;;4878207;29;20416;-72
2021/12/07 13:41:47;;;;;;;2.13;1.00;;;6.90;99.90;;;;;;4878261;29;20491;-72
2021/12/07 13:44:12;;;;;;;4.90;1.67;;;6.70;99.90;;;;;;4877844;29;20450;-73
2021/12/07 13:46:38;;;;;;;1.77;0.97;;;6.70;99.90;;;;;;4878301;29;20509;-72
2021/12/07 13:49:06;;;;;;;2.53;1.00;;;6.60;99.90;;;;;;4878176;29;20190;-72
2021/12/07 13:51:32;;;;;;;2.73;0.97;;;6.50;99.90;;;;;;4878173;29;20196;-73
2021/12/07 13:54:00;;;;;;;2.20;1.17;;;6.40;99.90;;;;;;4878245;29;20472;-72
2021/12/07 13:56:26;;;;;;;4.17;0.70;;;6.30;99.90;;;;;;4878085;29;20265;-72
2021/12/07 13:58:53;;;;;;;1.93;1.20;;;6.20;99.90;;;;;;4878306;29;20429;-72
2021/12/07 14:01:20;;;;;;;4.60;1.33;;;6.10;99.90;;;;;;4877998;29;20195;-72
2021/12/07 14:03:46;;;;;;;1.70;1.17;;;6.10;99.90;;;;;;4877905;29;20837;-72
2021/12/07 14:06:12;;;;;;;5.87;0.80;;;6.10;99.90;;;;;;4875457;29;20478;-72
2021/12/07 14:08:38;;;;;;;4.23;0.90;;;6.10;99.90;;;;;;4878218;29;20462;-72
2021/12/07 14:11:04;;;;;;;1.10;0.93;;;6.10;99.90;;;;;;4877928;29;20424;-72
2021/12/07 14:13:30;;;;;;;1.47;0.70;;;6.10;99.90;;;;;;4877671;29;20426;-71
2021/12/07 14:15:56;;;;;;;1.47;0.80;;;6.10;99.90;;;;;;4878174;29;20223;-73
2021/12/07 14:18:24;;;;;;;3.73;1.20;;;6.10;99.90;;;;;;4878082;29;20420;-72
2021/12/07 14:20:57;;;;;;;1.47;0.80;;;5.90;99.90;;;;;;4878094;29;21027;-73
2021/12/07 14:23:27;;;;;;;2.93;1.23;;;5.90;99.90;;;;;;4877580;29;20448;-73
2021/12/07 14:26:13;;;;;;;3.43;1.13;;;5.80;99.90;;;;;;4879305;29;20422;-72
2021/12/07 14:28:38;;;;;;;2.40;0.90;;;5.70;99.90;;;;;;4877614;29;20424;-72
2021/12/07 14:31:10;;;;;;;3.10;0.77;;;5.70;99.90;;;;;;4877710;29;20452;-72
2021/12/07 14:33:57;;;;;;;3.77;1.20;;;5.70;99.90;;;;;;4877604;29;20186;-72
2021/12/07 14:36:41;;;;;;;1.60;0.90;;;5.70;99.90;;;;;;4880570;29;20463;-72
2021/12/07 14:39:15;;;;;;;6.67;0.90;;;5.70;99.90;;;;;;4881397;29;20503;-73
2021/12/07 14:42:17;;;;;;;3.17;1.40;;;5.60;99.90;;;;;;4881628;29;20440;-71
2021/12/07 14:44:46;;;;;;;1.27;0.70;;;5.50;99.90;;;;;;4804200;29;20439;-72
2021/12/07 14:47:12;;;;;;;2.43;0.70;;;5.50;99.90;;;;;;4866823;29;20437;-72
2021/12/07 14:49:41;;;;;;;5.20;1.13;;;5.50;99.90;;;;;;4881168;29;20431;-73
2021/12/07 14:52:14;;;;;;;3.13;1.10;;;5.40;99.90;;;;;;4881280;29;20790;-71
2021/12/07 14:54:41;;;;;;;6.10;0.90;;;5.30;99.90;;;;;;4880725;29;20456;-71
2021/12/07 14:57:07;;;;;;;6.70;1.87;;;5.20;99.90;;;;;;4881159;29;20471;-72
2021/12/07 14:59:39;;;;;;;2.10;0.83;;;5.10;99.90;;;;;;4881116;29;20407;-72
2021/12/07 15:02:08;;;;;;;3.10;1.30;;;5.00;99.90;;;;;;4880931;29;20298;-72
2021/12/07 15:04:34;;;;;;;1.90;1.50;;;4.90;99.90;;;;;;4880944;29;20917;-71
2021/12/07 15:07:03;;;;;;;4.03;1.00;;;4.90;99.90;;;;;;4880836;29;20421;-72
2021/12/07 15:09:33;;;;;;;1.77;1.13;;;4.80;99.90;;;;;;4881002;29;20243;-72
2021/12/07 15:11:59;;;;;;;2.50;1.60;;;4.70;99.90;;;;;;4880947;29;20442;-72
2021/12/07 15:14:28;;;;;;;1.13;1.03;;;4.60;99.90;;;;;;4880450;29;20418;-72
2021/12/07 15:16:56;;;;;;;6.10;1.70;;;4.50;99.90;;;;;;4880709;29;20198;-72
2021/12/07 15:19:22;;;;;;;4.87;1.10;;;4.40;99.90;;;;;;4880690;29;20416;-72
2021/12/07 15:21:47;;;;;;;4.60;1.40;;;4.30;99.90;;;;;;4880647;29;20428;-72
2021/12/07 15:24:19;;;;;;;3.20;1.00;;;4.20;99.90;;;;;;4880143;29;20416;-71
2021/12/07 15:26:45;;;;;;;7.07;1.30;;;4.10;99.90;;;;;;4880286;29;20598;-72
2021/12/07 15:29:13;;;;;;;6.80;1.97;;;3.90;99.90;;;;;;4880487;29;20966;-71
2021/12/07 15:31:48;;;;;;;4.73;1.57;;;3.70;99.90;;;;;;4880484;29;20980;-71
2021/12/07 15:34:15;;;;;;;7.20;1.23;;;3.60;99.90;;;;;;4880036;29;20784;-71
2021/12/07 15:36:44;;;;;;;5.80;1.30;;;3.50;99.90;;;;;;4880527;29;20556;-72
2021/12/07 15:39:21;;;;;;;10.67;2.17;;;3.40;99.90;;;;;;4875751;29;20742;-72
2021/12/07 15:41:53;;;;;;;4.20;1.53;;;3.30;99.90;;;;;;4880173;29;20448;-73
2021/12/07 15:44:26;;;;;;;7.13;1.37;;;3.20;99.90;;;;;;4879895;29;20430;-71
2021/12/07 15:47:02;;;;;;;7.17;1.60;;;3.10;99.90;;;;;;4879238;29;20414;-72
2021/12/07 15:49:30;;;;;;;7.33;1.50;;;2.90;99.90;;;;;;4880248;29;20513;-73
2021/12/07 15:51:59;;;;;;;5.30;2.10;;;2.90;99.90;;;;;;4880158;29;20563;-72
2021/12/07 15:54:25;;;;;;;6.87;2.20;;;2.80;99.90;;;;;;4878385;29;21016;-72
2021/12/07 15:57:04;;;;;;;3.87;1.90;;;2.70;99.90;;;;;;4880162;29;20429;-74
2021/12/07 15:59:31;;;;;;;6.13;1.60;;;2.60;99.90;;;;;;4879930;29;20421;-73
2021/12/07 16:01:57;;;;;;;4.20;1.63;;;2.50;99.90;;;;;;4879869;29;20490;-74
2021/12/07 16:04:34;;;;;;;6.50;2.17;;;2.30;99.90;;;;;;4879417;29;20421;-73
2021/12/07 16:07:03;;;;;;;4.83;2.67;;;2.30;99.90;;;;;;4879975;29;20208;-74
2021/12/07 16:09:29;;;;;;;2.20;1.57;;;2.20;99.90;;;;;;4878490;29;20428;-72
2021/12/07 16:12:18;;;;;;;5.97;1.70;;;2.10;99.90;;;;;;4879802;29;20817;-72
2021/12/07 16:14:44;;;;;;;6.90;2.13;;;2.10;99.90;;;;;;4879678;29;20836;-74
2021/12/07 16:17:21;;;;;;;17.03;2.07;;;2.00;99.90;;;;;;4879870;29;20421;-74
2021/12/07 16:19:48;;;;;;;8.53;2.10;;;1.80;99.90;;;;;;4879897;29;20176;-73
2021/12/07 16:22:14;;;;;;;5.87;2.23;;;1.80;99.90;;;;;;4879639;29;20423;-72
2021/12/07 16:24:41;;;;;;;4.73;1.77;;;1.70;99.90;;;;;;4879236;29;20409;-74
2021/12/07 16:27:07;;;;;;;7.63;1.77;;;1.70;99.90;;;;;;4879640;29;20452;-74
2021/12/07 16:29:33;;;;;;;4.37;1.77;;;1.60;99.90;;;;;;4879469;29;20423;-73
2021/12/07 16:32:02;;;;;;;3.87;2.40;;;1.60;99.90;;;;;;4879251;29;20433;-73
2021/12/07 16:34:28;;;;;;;4.00;1.47;;;1.50;99.90;;;;;;4879383;29;20189;-74
2021/12/07 16:36:53;;;;;;;4.37;1.67;;;1.50;99.90;;;;;;4879493;29;20424;-74
2021/12/07 16:39:19;;;;;;;6.20;2.50;;;1.40;99.90;;;;;;4879369;29;20426;-74
2021/12/07 16:41:44;;;;;;;8.27;1.90;;;1.30;99.90;;;;;;4879464;29;20196;-73
2021/12/07 16:44:11;;;;;;;7.60;2.70;;;1.30;99.90;;;;;;4879174;29;20179;-73
2021/12/07 16:46:37;;;;;;;3.03;2.20;;;1.20;99.90;;;;;;4879742;29;20266;-73
2021/12/07 16:49:04;;;;;;;4.40;2.73;;;1.20;99.90;;;;;;4881357;29;20432;-73
2021/12/07 16:51:31;;;;;;;4.70;2.40;;;1.20;99.90;;;;;;4879674;29;20544;-73
2021/12/07 16:53:57;;;;;;;5.17;1.67;;;1.10;99.90;;;;;;4879074;29;20424;-74
2021/12/07 16:56:23;;;;;;;3.00;1.93;;;1.10;99.90;;;;;;4874062;29;20468;-73
2021/12/07 16:58:48;;;;;;;6.37;2.50;;;1.00;99.90;;;;;;4871785;29;20498;-73
2021/12/07 17:01:16;;;;;;;11.40;3.00;;;1.00;99.90;;;;;;4872136;29;20233;-73
2021/12/07 17:03:45;;;;;;;11.53;2.47;;;0.90;99.90;;;;;;4874001;29;20184;-73
2021/12/07 17:06:11;;;;;;;9.40;2.93;;;0.90;99.90;;;;;;4870379;29;20798;-73
2021/12/07 17:08:37;;;;;;;3.87;2.47;;;0.90;99.90;;;;;;4872681;29;20457;-73
2021/12/07 17:11:04;;;;;;;6.77;2.70;;;0.90;99.90;;;;;;4870950;29;20426;-73
2021/12/07 17:13:30;;;;;;;8.87;2.90;;;0.90;99.90;;;;;;4872115;29;20434;-73
2021/12/07 17:15:56;;;;;;;8.70;3.30;;;0.90;99.90;;;;;;4867367;29;21099;-73
2021/12/07 17:18:23;;;;;;;6.50;2.90;;;0.90;99.90;;;;;;4872539;29;20932;-74
2021/12/07 17:20:50;;;;;;;7.90;3.87;;;0.80;99.90;;;;;;4873226;29;20543;-73
2021/12/07 17:23:16;;;;;;;7.97;4.17;;;0.80;99.90;;;;;;4870548;29;20461;-73
2021/12/07 17:25:42;;;;;;;10.93;3.33;;;0.80;99.90;;;;;;4873174;29;20791;-74
2021/12/07 17:28:08;;;;;;;5.23;3.30;;;0.80;99.90;;;;;;4870511;29;20396;-73
2021/12/07 17:30:34;;;;;;;11.83;3.53;;;0.70;99.90;;;;;;4872315;29;20237;-73
2021/12/07 17:32:59;;;;;;;11.50;3.20;;;0.70;99.90;;;;;;4870373;29;20188;-74
2021/12/07 17:35:26;;;;;;;6.77;3.37;;;0.70;99.90;;;;;;4871227;29;20465;-73
2021/12/07 17:37:52;;;;;;;8.70;3.57;;;0.70;99.90;;;;;;4872396;29;20184;-73
2021/12/07 17:40:23;;;;;;;5.80;3.23;;;0.70;99.90;;;;;;4869303;29;20451;-74
2021/12/07 17:42:49;;;;;;;5.90;3.70;;;0.70;99.90;;;;;;4872422;29;20474;-73
2021/12/07 17:45:17;;;;;;;6.40;4.23;;;0.70;99.90;;;;;;4869897;29;20455;-73
2021/12/07 17:47:43;;;;;;;18.40;4.80;;;0.70;99.90;;;;;;4872372;29;20508;-73
2021/12/07 17:50:12;;;;;;;12.93;4.40;;;0.70;99.90;;;;;;4869798;29;20449;-73